createdAt,value
2018-11-21T00:00:47.907Z,98.10
2018-11-21T00:03:17.014Z,97.70
2018-11-21T00:05:46.728Z,97.90
2018-11-21T00:08:17.929Z,98.10
2018-11-21T00:10:48.570Z,98.20
2018-11-21T00:13:17.431Z,98.20
2018-11-21T00:15:49.817Z,98.20
2018-11-21T00:18:20.372Z,98.40
2018-11-21T00:20:51.354Z,98.30
2018-11-21T00:23:20.360Z,98.20
2018-11-21T00:25:50.245Z,98.10
2018-11-21T00:28:21.925Z,98.10
2018-11-21T00:30:55.854Z,98.20
2018-11-21T00:33:36.429Z,98.20
2018-11-21T00:36:08.175Z,98.00
2018-11-21T00:38:37.685Z,98.10
2018-11-21T00:41:09.350Z,98.30
2018-11-21T00:43:42.408Z,98.50
2018-11-21T00:46:12.766Z,98.70
2018-11-21T00:48:41.646Z,98.80
2018-11-21T00:51:16.627Z,99.10
2018-11-21T00:53:45.710Z,99.20
2018-11-21T00:56:16.441Z,99.30
2018-11-21T00:58:46.209Z,99.40
2018-11-21T01:01:15.829Z,99.30
2018-11-21T01:03:45.534Z,99.30
2018-11-21T01:06:14.918Z,99.40
2018-11-21T01:08:44.680Z,99.40
2018-11-21T01:11:14.614Z,99.40
2018-11-21T01:13:44.625Z,99.50
2018-11-21T01:16:13.575Z,99.50
2018-11-21T01:18:42.814Z,99.50
2018-11-21T01:21:11.779Z,99.70
2018-11-21T01:23:41.440Z,99.70
2018-11-21T01:26:12.820Z,99.90
2018-11-21T01:28:42.668Z,99.80
2018-11-21T01:31:13.554Z,99.90
2018-11-21T01:33:44.877Z,99.80
2018-11-21T01:36:16.209Z,99.90
2018-11-21T01:39:01.340Z,99.80
2018-11-21T01:41:32.910Z,99.70
2018-11-21T01:44:03.566Z,99.60
2018-11-21T01:46:40.486Z,99.60
2018-11-21T01:49:14.691Z,99.50
2018-11-21T01:51:43.541Z,99.30
2018-11-21T01:54:17.515Z,99.10
2018-11-21T01:56:49.238Z,98.90
2018-11-21T01:59:19.786Z,99.00
2018-11-21T02:01:53.395Z,99.00
2018-11-21T02:04:25.585Z,99.00
2018-11-21T02:07:01.550Z,98.90
2018-11-21T02:09:34.741Z,98.70
2018-11-21T02:12:08.793Z,98.60
2018-11-21T02:14:39.354Z,98.60
2018-11-21T02:17:08.541Z,98.60
2018-11-21T02:19:38.754Z,98.60
2018-11-21T02:22:08.049Z,98.40
2018-11-21T02:24:36.983Z,98.40
2018-11-21T02:27:05.783Z,98.50
2018-11-21T02:29:35.416Z,98.60
2018-11-21T02:32:04.578Z,98.40
2018-11-21T02:34:34.796Z,98.40
2018-11-21T02:39:33.726Z,98.40
2018-11-21T02:42:05.442Z,98.30
2018-11-21T02:44:34.607Z,98.00
2018-11-21T02:47:04.581Z,98.00
2018-11-21T02:49:35.543Z,97.90
2018-11-21T02:52:06.300Z,98.00
2018-11-21T02:54:35.186Z,98.10
2018-11-21T02:57:28.185Z,97.90
2018-11-21T03:00:22.900Z,98.00
2018-11-21T03:02:51.768Z,98.00
2018-11-21T03:05:21.616Z,98.00
2018-11-21T03:07:55.532Z,98.00
2018-11-21T03:10:26.311Z,98.10
2018-11-21T03:12:55.408Z,98.20
2018-11-21T03:15:24.275Z,98.30
2018-11-21T03:17:54.776Z,98.30
2018-11-21T03:20:25.099Z,98.50
2018-11-21T03:22:54.525Z,98.20
2018-11-21T03:25:23.424Z,98.20
2018-11-21T03:27:52.585Z,98.10
2018-11-21T03:30:21.396Z,98.10
2018-11-21T03:32:53.799Z,98.10
2018-11-21T03:35:22.632Z,98.10
2018-11-21T03:37:54.397Z,98.10
2018-11-21T03:40:24.561Z,98.10
2018-11-21T03:42:53.493Z,97.90
2018-11-21T03:45:22.687Z,98.10
2018-11-21T03:47:51.528Z,98.10
2018-11-21T03:50:20.378Z,98.10
2018-11-21T03:52:49.585Z,97.90
2018-11-21T03:55:18.843Z,97.80
2018-11-21T03:57:47.938Z,97.70
2018-11-21T04:00:16.757Z,97.70
2018-11-21T04:02:45.592Z,97.80
2018-11-21T04:05:14.461Z,97.80
2018-11-21T04:07:43.629Z,97.70
2018-11-21T04:10:13.855Z,97.80
2018-11-21T04:12:42.684Z,97.80
2018-11-21T04:15:12.855Z,97.80
2018-11-21T04:17:42.414Z,97.80
2018-11-21T04:20:11.641Z,97.80
2018-11-21T04:22:41.250Z,97.90
2018-11-21T04:25:11.500Z,97.90
2018-11-21T04:27:40.858Z,97.90
2018-11-21T04:30:11.833Z,98.00
2018-11-21T04:32:41.196Z,97.90
2018-11-21T04:35:10.634Z,97.90
2018-11-21T04:37:39.971Z,97.90
2018-11-21T04:40:13.411Z,97.80
2018-11-21T04:42:42.222Z,97.90
2018-11-21T04:45:11.408Z,97.50
2018-11-21T04:47:40.492Z,97.80
2018-11-21T04:50:09.462Z,97.90
2018-11-21T04:52:38.314Z,97.90
2018-11-21T04:55:07.944Z,97.90
2018-11-21T04:57:37.093Z,97.90
2018-11-21T05:00:07.839Z,97.90
2018-11-21T05:02:36.682Z,98.10
2018-11-21T05:05:07.613Z,97.80
2018-11-21T05:07:36.469Z,97.90
2018-11-21T05:10:06.412Z,97.70
2018-11-21T05:12:35.676Z,97.70
2018-11-21T05:15:04.659Z,97.50
2018-11-21T05:17:33.519Z,97.50
2018-11-21T05:20:02.359Z,97.20
2018-11-21T05:22:31.189Z,97.20
2018-11-21T05:25:00.290Z,97.40
2018-11-21T05:27:29.945Z,97.40
2018-11-21T05:29:58.906Z,97.60
2018-11-21T05:32:27.953Z,97.50
2018-11-21T05:34:57.247Z,97.40
2018-11-21T05:37:26.449Z,97.80
2018-11-21T05:39:55.301Z,97.80
2018-11-21T05:42:24.195Z,97.70
2018-11-21T05:44:53.026Z,97.70
2018-11-21T05:47:21.872Z,97.80
2018-11-21T05:49:50.707Z,98.00
2018-11-21T05:52:25.744Z,98.10
2018-11-21T05:54:54.581Z,98.20
2018-11-21T05:57:23.673Z,98.10
2018-11-21T05:59:52.522Z,97.90
2018-11-21T06:02:21.357Z,98.00
2018-11-21T06:04:50.219Z,98.00
2018-11-21T06:07:19.084Z,98.10
2018-11-21T06:09:47.923Z,98.00
2018-11-21T06:12:16.779Z,98.00
2018-11-21T06:14:45.602Z,98.10
2018-11-21T06:17:14.535Z,98.20
2018-11-21T06:19:43.283Z,98.20
2018-11-21T06:22:12.280Z,97.90
2018-11-21T06:24:42.201Z,98.00
2018-11-21T06:27:11.226Z,98.20
2018-11-21T06:29:39.869Z,98.10
2018-11-21T06:32:08.733Z,98.10
2018-11-21T06:34:37.593Z,98.20
2018-11-21T06:37:06.439Z,98.20
2018-11-21T06:39:35.261Z,97.90
2018-11-21T06:42:04.134Z,98.10
2018-11-21T06:44:32.962Z,98.00
2018-11-21T06:47:01.801Z,98.00
2018-11-21T06:49:30.894Z,98.20
2018-11-21T06:51:59.735Z,98.20
2018-11-21T06:54:28.575Z,98.30
2018-11-21T06:56:57.417Z,98.40
2018-11-21T06:59:26.221Z,98.40
2018-11-21T07:01:55.008Z,98.30
2018-11-21T07:04:23.828Z,98.30
2018-11-21T07:06:52.769Z,98.30
2018-11-21T07:09:21.598Z,98.40
2018-11-21T07:11:50.391Z,98.70
2018-11-21T07:14:19.280Z,98.50
2018-11-21T07:16:48.310Z,98.40
2018-11-21T07:19:17.152Z,98.30
2018-11-21T07:21:45.967Z,98.30
2018-11-21T07:24:14.801Z,98.40
2018-11-21T07:27:28.962Z,98.20
2018-11-21T07:29:57.777Z,98.20
2018-11-21T07:32:28.838Z,98.00
2018-11-21T07:34:57.744Z,98.00
2018-11-21T07:37:28.464Z,97.90
2018-11-21T07:40:18.451Z,97.90
2018-11-21T07:42:57.231Z,97.60
2018-11-21T07:45:27.203Z,97.40
2018-11-21T07:48:02.952Z,97.60
2018-11-21T07:50:53.055Z,97.20
2018-11-21T07:53:33.922Z,97.20
2018-11-21T07:56:25.657Z,97.40
2018-11-21T07:58:55.879Z,97.50
2018-11-21T08:02:21.783Z,97.20
2018-11-21T08:05:08.178Z,97.30
2018-11-21T08:08:18.695Z,97.10
2018-11-21T08:11:22.831Z,97.10
2018-11-21T08:14:33.952Z,97.30
2018-11-21T08:17:33.951Z,97.30
2018-11-21T08:20:20.803Z,97.20
2018-11-21T08:23:48.321Z,97.10
2018-11-21T08:26:34.064Z,97.00
2018-11-21T08:29:07.055Z,96.80
2018-11-21T08:31:37.515Z,96.80
2018-11-21T08:34:10.800Z,96.60
2018-11-21T08:36:51.206Z,96.50
2018-11-21T08:39:22.849Z,96.30
2018-11-21T08:41:52.028Z,96.50
2018-11-21T08:44:35.461Z,96.30
2018-11-21T08:47:11.536Z,96.50
2018-11-21T08:49:48.896Z,96.20
2018-11-21T08:52:18.858Z,96.30
2018-11-21T08:54:47.749Z,96.20
2018-11-21T08:57:16.626Z,96.30
2018-11-21T08:59:46.653Z,96.40
2018-11-21T09:02:15.517Z,96.50
2018-11-21T09:04:44.413Z,96.20
2018-11-21T09:07:14.166Z,96.20
2018-11-21T09:09:43.953Z,96.50
2018-11-21T09:12:15.386Z,96.40
2018-11-21T09:14:42.329Z,96.70
2018-11-21T09:17:11.592Z,96.40
2018-11-21T09:19:40.823Z,96.20
2018-11-21T09:22:09.698Z,95.90
2018-11-21T09:24:39.424Z,95.60
2018-11-21T09:27:10.040Z,95.30
2018-11-21T09:29:38.917Z,95.50
2018-11-21T09:32:07.824Z,95.50
2018-11-21T09:34:36.704Z,95.50
2018-11-21T09:37:05.730Z,95.30
2018-11-21T09:39:34.909Z,95.20
2018-11-21T09:42:04.881Z,94.50
2018-11-21T09:44:34.593Z,94.30
2018-11-21T09:47:04.919Z,94.00
2018-11-21T09:49:33.793Z,94.20
2018-11-21T09:52:02.679Z,94.00
2018-11-21T09:54:31.566Z,94.20
2018-11-21T09:57:00.463Z,94.30
2018-11-21T09:59:29.343Z,94.70
2018-11-21T10:02:34.779Z,94.80
2018-11-21T10:05:04.431Z,95.20
2018-11-21T10:07:35.006Z,95.20
2018-11-21T10:10:03.894Z,95.50
2018-11-21T10:12:33.099Z,95.10
2018-11-21T10:15:02.513Z,95.00
2018-11-21T10:17:31.385Z,94.80
2018-11-21T10:20:00.257Z,94.50
2018-11-21T10:22:29.156Z,94.60
2018-11-21T10:24:58.162Z,94.90
2018-11-21T10:27:26.940Z,94.90
2018-11-21T10:29:55.824Z,94.90
2018-11-21T10:32:24.982Z,94.90
2018-11-21T10:34:53.866Z,94.80
2018-11-21T10:37:22.854Z,94.50
2018-11-21T10:39:51.703Z,94.20
2018-11-21T10:42:21.300Z,93.90
2018-11-21T10:45:37.082Z,94.10
2018-11-21T10:48:33.166Z,94.30
2018-11-21T10:51:05.384Z,94.60
2018-11-21T10:53:34.241Z,94.80
2018-11-21T10:56:03.065Z,94.70
2018-11-21T10:58:31.983Z,94.90
2018-11-21T11:01:18.906Z,94.90
2018-11-21T11:03:50.231Z,95.00
2018-11-21T11:06:41.021Z,94.90
2018-11-21T11:09:29.037Z,94.80
2018-11-21T11:12:22.973Z,94.80
2018-11-21T11:15:10.973Z,95.10
2018-11-21T11:17:50.764Z,94.30
2018-11-21T11:20:36.421Z,94.60
2018-11-21T11:23:13.282Z,94.50
2018-11-21T11:26:01.296Z,94.50
2018-11-21T11:28:48.638Z,94.50
2018-11-21T11:31:42.553Z,94.80
2018-11-21T11:34:29.955Z,94.40
2018-11-21T11:37:18.514Z,94.10
2018-11-21T11:40:02.782Z,93.90
2018-11-21T11:42:54.505Z,94.30
2018-11-21T11:45:43.851Z,94.20
2018-11-21T11:48:29.328Z,94.30
2018-11-21T11:51:17.576Z,94.30
2018-11-21T11:54:08.367Z,94.20
2018-11-21T11:56:54.922Z,94.10
2018-11-21T11:59:51.997Z,94.10
2018-11-21T12:02:35.036Z,94.10
2018-11-21T12:05:28.160Z,94.10
2018-11-21T12:08:10.367Z,94.00
2018-11-21T12:10:57.325Z,93.80
2018-11-21T12:13:43.998Z,93.20
2018-11-21T12:16:30.912Z,93.10
2018-11-21T12:19:31.327Z,92.70
2018-11-21T12:22:25.868Z,92.60
2018-11-21T12:25:23.337Z,92.20
2018-11-21T12:28:05.296Z,92.30
2018-11-21T12:30:52.072Z,92.60
2018-11-21T12:33:40.292Z,92.70
2018-11-21T12:36:29.810Z,93.10
2018-11-21T12:39:48.967Z,93.60
2018-11-21T12:45:55.790Z,93.80
2018-11-21T12:48:42.939Z,93.80
2018-11-21T12:51:38.447Z,94.00
2018-11-21T12:54:34.790Z,93.80
2018-11-21T12:57:21.270Z,93.50
2018-11-21T13:00:02.984Z,93.30
2018-11-21T13:02:41.690Z,92.70
2018-11-21T13:05:32.276Z,91.90
2018-11-21T13:08:30.071Z,91.00
2018-11-21T13:11:22.492Z,90.90
2018-11-21T13:14:11.537Z,91.20
2018-11-21T13:17:14.711Z,91.30
2018-11-21T13:20:01.508Z,91.10
2018-11-21T13:22:42.005Z,91.40
2018-11-21T13:25:46.123Z,91.90
2018-11-21T13:28:40.451Z,92.50
2018-11-21T13:31:37.095Z,92.80
2018-11-21T13:34:42.417Z,92.90
2018-11-21T13:37:29.938Z,93.10
2018-11-21T13:40:20.853Z,93.30
2018-11-21T13:43:11.226Z,93.50
2018-11-21T13:46:11.081Z,93.60
2018-11-21T13:49:16.915Z,94.20
2018-11-21T13:52:25.034Z,94.20
2018-11-21T13:55:03.706Z,94.40
2018-11-21T13:57:48.555Z,94.30
2018-11-21T14:00:18.987Z,94.30
2018-11-21T14:03:51.342Z,94.30
2018-11-21T14:09:49.542Z,94.70
2018-11-21T14:12:31.662Z,95.10
2018-11-21T14:15:00.458Z,95.00
2018-11-21T14:17:29.244Z,95.00
2018-11-21T14:19:58.114Z,95.10
2018-11-21T14:22:27.037Z,95.10
2018-11-21T14:24:55.817Z,95.10
2018-11-21T14:27:24.686Z,95.20
2018-11-21T14:29:53.511Z,95.20
2018-11-21T14:32:22.311Z,95.30
2018-11-21T14:34:51.107Z,95.40
2018-11-21T14:37:19.908Z,95.50
2018-11-21T14:39:48.737Z,95.50
2018-11-21T14:42:17.579Z,95.40
2018-11-21T14:44:46.375Z,95.60
2018-11-21T14:47:16.080Z,95.80
2018-11-21T14:49:54.874Z,95.90
2018-11-21T14:52:23.978Z,96.20
2018-11-21T14:55:36.688Z,96.10
2018-11-21T14:58:20.685Z,96.10
2018-11-21T15:01:20.555Z,96.10
2018-11-21T15:04:29.327Z,96.20
2018-11-21T15:15:20.968Z,96.20
2018-11-21T15:25:49.447Z,96.20
2018-11-21T15:31:50.052Z,96.50
2018-11-21T15:37:50.071Z,96.40
2018-11-21T15:40:46.894Z,96.40
2018-11-21T15:43:29.083Z,96.60
2018-11-21T15:46:02.863Z,96.60
2018-11-21T15:52:20.210Z,96.80
2018-11-21T15:55:22.426Z,96.70
2018-11-21T15:58:00.284Z,96.60
2018-11-21T16:00:39.107Z,96.80
2018-11-21T16:03:09.935Z,96.70
2018-11-21T16:05:44.330Z,96.80
2018-11-21T16:08:37.234Z,97.00
2018-11-21T16:11:08.882Z,97.10
2018-11-21T16:13:41.150Z,97.10
2018-11-21T16:16:11.538Z,97.10
2018-11-21T16:18:43.100Z,97.30
2018-11-21T16:21:12.735Z,97.00
2018-11-21T16:23:44.562Z,97.00
2018-11-21T16:26:13.682Z,97.00
2018-11-21T16:28:45.353Z,97.00
2018-11-21T16:31:14.279Z,97.00
2018-11-21T16:33:44.338Z,97.00
2018-11-21T16:36:13.498Z,97.10
2018-11-21T16:38:51.161Z,97.10
2018-11-21T16:41:30.445Z,97.30
2018-11-21T16:44:08.166Z,96.90
2018-11-21T16:46:59.371Z,96.90
2018-11-21T16:49:29.889Z,96.90
2018-11-21T16:52:06.754Z,97.10
2018-11-21T16:54:37.369Z,97.10
2018-11-21T16:57:07.689Z,97.30
2018-11-21T16:59:37.465Z,97.10
2018-11-21T17:02:23.939Z,97.20
2018-11-21T17:05:17.168Z,97.40
2018-11-21T17:07:49.554Z,97.40
2018-11-21T17:10:20.154Z,97.40
2018-11-21T17:12:51.036Z,97.50
2018-11-21T17:15:25.437Z,97.60
2018-11-21T17:18:29.928Z,97.60
2018-11-21T17:21:40.802Z,97.60
2018-11-21T17:24:11.246Z,97.60
2018-11-21T17:27:10.323Z,97.60
2018-11-21T17:29:53.662Z,97.60
2018-11-21T17:32:30.157Z,97.50
2018-11-21T17:34:59.816Z,97.50
2018-11-21T17:37:39.675Z,97.50
2018-11-21T17:40:45.548Z,97.30
2018-11-21T17:43:18.072Z,97.30
2018-11-21T17:46:32.761Z,97.20
2018-11-21T17:49:02.645Z,97.20
2018-11-21T17:51:31.766Z,97.40
2018-11-21T17:55:10.382Z,97.50
2018-11-21T17:57:39.377Z,97.50
2018-11-21T18:00:11.257Z,97.50
2018-11-21T18:02:40.111Z,97.40
2018-11-21T18:05:09.971Z,97.30
2018-11-21T18:07:38.785Z,97.30
2018-11-21T18:10:09.986Z,97.30
2018-11-21T18:12:39.058Z,97.40
2018-11-21T18:15:08.387Z,97.40
2018-11-21T18:17:37.155Z,97.40
2018-11-21T18:20:07.692Z,97.30
2018-11-21T18:22:36.495Z,97.50
2018-11-21T18:25:07.480Z,97.50
2018-11-21T18:27:36.562Z,97.40
2018-11-21T18:30:10.958Z,97.30
2018-11-21T18:32:39.927Z,97.30
2018-11-21T18:35:10.017Z,97.30
2018-11-21T18:37:38.829Z,97.20
2018-11-21T18:40:10.444Z,97.10
2018-11-21T18:42:39.702Z,97.10
2018-11-21T18:45:18.547Z,97.00
2018-11-21T18:47:47.632Z,97.10
2018-11-21T18:50:17.331Z,96.80
2018-11-21T18:52:46.550Z,96.70
2018-11-21T18:55:17.696Z,96.50
2018-11-21T18:58:23.741Z,96.40
2018-11-21T19:00:55.676Z,96.70
2018-11-21T19:03:28.512Z,96.20
2018-11-21T19:06:36.581Z,96.10
2018-11-21T19:09:33.989Z,96.10
2018-11-21T19:12:23.824Z,96.30
2018-11-21T19:14:52.571Z,96.50
2018-11-21T19:17:21.480Z,96.30
2018-11-21T19:19:50.475Z,96.20
2018-11-21T19:22:19.396Z,96.30
2018-11-21T19:24:48.219Z,96.30
2018-11-21T19:27:17.013Z,96.20
2018-11-21T19:29:45.840Z,96.20
2018-11-21T19:32:14.628Z,96.30
2018-11-21T19:34:43.429Z,96.10
2018-11-21T19:37:12.233Z,96.00
2018-11-21T19:39:41.003Z,96.10
2018-11-21T19:44:38.666Z,95.80
2018-11-21T19:47:07.365Z,95.80
2018-11-21T19:49:36.241Z,95.90
2018-11-21T19:52:05.107Z,95.90
2018-11-21T19:54:33.897Z,95.70
2018-11-21T19:57:03.253Z,95.70
2018-11-21T19:59:32.061Z,95.90
2018-11-21T20:02:00.831Z,96.10
2018-11-21T20:04:29.622Z,96.10
2018-11-21T20:06:58.432Z,96.10
2018-11-21T20:09:27.214Z,96.10
2018-11-21T20:11:56.067Z,96.10
2018-11-21T20:14:24.996Z,96.10
2018-11-21T20:16:53.781Z,96.20
2018-11-21T20:19:22.669Z,96.20
2018-11-21T20:21:51.391Z,96.10
2018-11-21T20:24:20.244Z,96.10
2018-11-21T20:26:49.141Z,96.10
2018-11-21T20:29:17.962Z,96.20
2018-11-21T20:31:46.784Z,96.00
2018-11-21T20:34:15.617Z,96.00
2018-11-21T20:36:44.399Z,96.00
2018-11-21T20:39:13.571Z,95.80
2018-11-21T20:41:42.840Z,95.90
2018-11-21T20:44:11.754Z,95.90
2018-11-21T20:46:40.585Z,95.80
2018-11-21T20:49:11.391Z,95.90
2018-11-21T20:51:38.316Z,95.90
2018-11-21T20:54:07.107Z,96.00
2018-11-21T20:56:35.996Z,95.90
2018-11-21T20:59:04.899Z,95.80
2018-11-21T21:01:33.711Z,96.00
2018-11-21T21:04:02.520Z,96.00
2018-11-21T21:06:31.304Z,96.20
2018-11-21T21:09:00.118Z,96.20
2018-11-21T21:11:28.937Z,96.10
2018-11-21T21:13:57.888Z,96.00
2018-11-21T21:16:26.661Z,96.00
2018-11-21T21:18:55.728Z,96.10
2018-11-21T21:21:26.947Z,96.10
2018-11-21T21:23:57.782Z,96.00
2018-11-21T21:26:34.043Z,96.00
2018-11-21T21:29:26.585Z,96.00
2018-11-21T21:31:55.743Z,95.90
2018-11-21T21:34:43.437Z,96.10
2018-11-21T21:37:16.903Z,96.10
2018-11-21T21:39:49.759Z,96.20
2018-11-21T21:42:20.876Z,96.40
2018-11-21T21:45:02.877Z,97.10
2018-11-21T21:47:33.782Z,96.80
2018-11-21T21:50:11.229Z,96.80
2018-11-21T21:52:43.029Z,96.80
2018-11-21T21:55:35.779Z,96.90
2018-11-21T21:58:08.016Z,97.00
2018-11-21T22:00:37.491Z,97.00
2018-11-21T22:03:07.929Z,97.00
2018-11-21T22:05:40.667Z,97.00
2018-11-21T22:08:11.173Z,97.00
2018-11-21T22:10:41.309Z,96.90
2018-11-21T22:13:14.726Z,96.90
2018-11-21T22:15:52.137Z,97.10
2018-11-21T22:18:22.420Z,97.10
2018-11-21T22:20:52.861Z,96.90
2018-11-21T22:23:26.645Z,97.10
2018-11-21T22:26:00.346Z,96.90
2018-11-21T22:28:33.741Z,96.90
2018-11-21T22:31:10.964Z,96.80
2018-11-21T22:33:42.044Z,96.90
2018-11-21T22:36:13.163Z,97.00
2018-11-21T22:38:45.927Z,97.30
2018-11-21T22:41:16.782Z,97.00
2018-11-21T22:44:07.940Z,96.90
2018-11-21T22:46:40.742Z,96.90
2018-11-21T22:49:12.536Z,96.90
2018-11-21T22:51:47.560Z,97.00
2018-11-21T22:54:13.168Z,96.90
2018-11-21T22:56:46.119Z,96.80
2018-11-21T22:59:18.323Z,96.70
2018-11-21T23:01:47.637Z,96.80
2018-11-21T23:04:17.075Z,96.80
2018-11-21T23:06:47.246Z,96.90
2018-11-21T23:09:17.089Z,96.80
2018-11-21T23:11:50.663Z,97.00
2018-11-21T23:14:20.055Z,97.10
2018-11-21T23:16:49.292Z,96.90
2018-11-21T23:19:18.439Z,97.00
2018-11-21T23:21:48.100Z,97.00
2018-11-21T23:24:19.741Z,96.90
2018-11-21T23:26:49.465Z,96.70
2018-11-21T23:29:18.434Z,96.70
2018-11-21T23:31:47.838Z,96.60
2018-11-21T23:34:22.508Z,96.60
2018-11-21T23:36:52.026Z,96.80
2018-11-21T23:39:21.157Z,96.80
2018-11-21T23:41:50.187Z,97.10
2018-11-21T23:44:19.088Z,97.00
2018-11-21T23:47:08.835Z,97.00
2018-11-21T23:49:47.756Z,97.00
2018-11-21T23:52:19.580Z,97.10
2018-11-21T23:54:52.219Z,97.10
2018-11-21T23:57:24.929Z,97.20
2018-11-21T23:59:55.372Z,97.10
